Time;durP1;ratioP1;P1;durP2;ratioP2;P2;SDS_P1;SDS_P2;PMS_P1;PMS_P2;Temp;Humidity;BMP_temperature;BMP_pressure;BME280_temperature;BME280_humidity;BME280_pressure;Samples;Min_cycle;Max_cycle;Signal;HPM_P1;HPM_P2
2022/05/11 00:01:09;;;;;;;8.27;3.20;;;;;;;;;;4989225;28;20224;-70
2022/05/11 00:03:35;;;;;;;6.40;3.40;;;;;;;;;;4988251;28;20648;-69
2022/05/11 00:06:01;;;;;;;3.20;2.87;;;;;;;;;;4990686;28;20194;-70
2022/05/11 00:08:27;;;;;;;6.13;3.30;;;;;;;;;;4988736;28;20259;-69
2022/05/11 00:10:53;;;;;;;6.53;3.30;;;;;;;;;;4989431;28;20220;-70
2022/05/11 00:13:19;;;;;;;10.13;3.20;;;;;;;;;;4990398;28;20225;-71
2022/05/11 00:15:45;;;;;;;5.47;3.20;;;;;;;;;;4989340;28;20811;-70
2022/05/11 00:18:11;;;;;;;6.87;3.67;;;;;;;;;;4986125;28;20198;-70
2022/05/11 00:20:37;;;;;;;3.83;3.43;;;;;;;;;;4983117;28;21130;-70
2022/05/11 00:23:03;;;;;;;6.27;3.20;;;;;;;;;;4986077;28;20245;-71
2022/05/11 00:25:29;;;;;;;4.13;3.20;;;;;;;;;;4983291;28;20190;-70
2022/05/11 00:27:57;;;;;;;4.83;3.00;;;;;;;;;;4957915;28;22145;-71
2022/05/11 00:30:23;;;;;;;3.50;3.20;;;;;;;;;;4981251;28;20279;-71
2022/05/11 00:32:51;;;;;;;4.07;3.20;;;;;;;;;;4987561;28;20656;-70
2022/05/11 00:35:17;;;;;;;4.47;3.57;;;;;;;;;;4991246;28;20761;-70
2022/05/11 00:37:43;;;;;;;4.80;3.67;;;;;;;;;;4991671;28;20190;-70
2022/05/11 00:40:09;;;;;;;7.10;3.53;;;;;;;;;;4990510;28;20253;-70
2022/05/11 00:42:35;;;;;;;5.80;3.30;;;;;;;;;;4982550;28;20186;-70
2022/05/11 00:45:01;;;;;;;6.03;3.53;;;;;;;;;;4971446;28;20185;-70
2022/05/11 00:47:35;;;;;;;4.10;3.70;;;;;;;;;;4979110;28;20218;-70
2022/05/11 00:50:04;;;;;;;4.37;3.50;;;;;;;;;;4986369;28;20182;-70
2022/05/11 00:52:43;;;;;;;8.23;3.67;;;;;;;;;;4989529;28;20181;-71
2022/05/11 00:55:11;;;;;;;6.27;3.70;;;;;;;;;;4982068;28;20240;-70
2022/05/11 00:57:48;;;;;;;5.87;3.57;;;;;;;;;;4970774;28;20308;-70
2022/05/11 01:00:14;;;;;;;4.77;3.90;;;;;;;;;;4987104;28;20658;-70
2022/05/11 01:02:40;;;;;;;5.63;3.80;;;;;;;;;;4967871;28;20644;-69
2022/05/11 01:05:06;;;;;;;6.47;4.30;;;;;;;;;;4981085;28;20242;-69
2022/05/11 01:07:32;;;;;;;5.97;3.80;;;;;;;;;;4988811;28;20209;-70
2022/05/11 01:09:58;;;;;;;5.93;4.20;;;;;;;;;;4982770;28;20276;-70
2022/05/11 01:12:26;;;;;;;6.47;4.17;;;;;;;;;;4985292;28;20278;-70
2022/05/11 01:14:53;;;;;;;4.83;3.87;;;;;;;;;;4981399;28;20201;-70
2022/05/11 01:17:19;;;;;;;6.33;4.10;;;;;;;;;;4996446;28;20653;-69
2022/05/11 01:19:45;;;;;;;4.73;3.80;;;;;;;;;;4984420;28;20675;-69
2022/05/11 01:22:35;;;;;;;4.70;4.17;;;;;;;;;;4957218;28;20714;-69
2022/05/11 01:25:02;;;;;;;6.93;4.23;;;;;;;;;;4973687;28;20213;-69
2022/05/11 01:27:39;;;;;;;6.23;4.17;;;;;;;;;;4987206;28;20210;-69
2022/05/11 01:30:05;;;;;;;8.13;4.77;;;;;;;;;;4983516;28;20554;-69
2022/05/11 01:32:31;;;;;;;6.73;4.03;;;;;;;;;;4978432;28;20198;-70
2022/05/11 01:35:18;;;;;;;5.67;4.40;;;;;;;;;;4982669;28;20200;-69
2022/05/11 01:37:46;;;;;;;7.47;4.60;;;;;;;;;;4982217;28;20702;-69
2022/05/11 01:40:12;;;;;;;4.90;4.40;;;;;;;;;;4988529;28;20183;-69
2022/05/11 01:42:38;;;;;;;7.07;4.40;;;;;;;;;;4983455;28;20265;-70
2022/05/11 01:45:04;;;;;;;8.03;4.33;;;;;;;;;;4984380;28;20213;-69
2022/05/11 01:47:30;;;;;;;8.33;4.57;;;;;;;;;;4986445;28;20213;-70
2022/05/11 01:49:56;;;;;;;7.47;4.10;;;;;;;;;;4987434;28;20216;-70
2022/05/11 01:52:22;;;;;;;5.10;4.60;;;;;;;;;;4989938;28;20662;-70
2022/05/11 01:54:48;;;;;;;5.30;4.27;;;;;;;;;;4990048;28;20276;-71
2022/05/11 01:57:14;;;;;;;6.87;4.40;;;;;;;;;;4989454;28;21329;-70
2022/05/11 01:59:40;;;;;;;8.63;4.23;;;;;;;;;;4989286;28;20205;-71
2022/05/11 02:02:06;;;;;;;6.03;4.33;;;;;;;;;;4989315;28;20198;-70
2022/05/11 02:10:01;;;;;;;7.00;4.77;;;;;;;;;;4993449;28;20270;-70
2022/05/11 02:12:27;;;;;;;7.53;4.90;;;;;;;;;;4992971;28;20190;-70
2022/05/11 02:14:53;;;;;;;5.30;4.77;;;;;;;;;;4988919;28;20343;-70
2022/05/11 02:17:20;;;;;;;7.23;4.63;;;;;;;;;;4987348;28;20669;-70
2022/05/11 02:19:46;;;;;;;5.13;4.37;;;;;;;;;;4991052;28;20185;-69
2022/05/11 02:22:12;;;;;;;8.00;4.17;;;;;;;;;;4993321;28;21023;-70
2022/05/11 02:24:37;;;;;;;7.73;4.33;;;;;;;;;;4988317;28;20198;-70
2022/05/11 02:27:04;;;;;;;7.03;4.33;;;;;;;;;;4984856;28;20225;-69
2022/05/11 02:29:30;;;;;;;7.63;4.80;;;;;;;;;;4987297;28;20193;-70
2022/05/11 02:31:56;;;;;;;5.20;4.10;;;;;;;;;;4968502;28;20220;-69
2022/05/11 02:37:06;;;;;;;7.60;4.17;;;;;;;;;;4990396;28;20723;-70
2022/05/11 02:39:32;;;;;;;5.93;4.20;;;;;;;;;;4995022;28;20277;-70
2022/05/11 02:42:00;;;;;;;5.80;4.30;;;;;;;;;;4984683;28;20191;-69
2022/05/11 02:44:26;;;;;;;6.00;4.60;;;;;;;;;;4987236;28;20177;-73
2022/05/11 02:46:52;;;;;;;8.03;4.90;;;;;;;;;;4986533;28;20223;-70
2022/05/11 02:49:18;;;;;;;8.83;4.40;;;;;;;;;;4990592;28;20179;-70
2022/05/11 02:51:44;;;;;;;6.67;4.37;;;;;;;;;;4991797;28;20196;-69
2022/05/11 02:54:11;;;;;;;8.30;4.17;;;;;;;;;;4984403;28;20190;-70
2022/05/11 02:56:37;;;;;;;7.77;4.57;;;;;;;;;;4980614;28;20293;-70
2022/05/11 02:59:03;;;;;;;5.20;4.07;;;;;;;;;;4982447;28;20706;-70
2022/05/11 03:01:28;;;;;;;6.27;4.27;;;;;;;;;;4980118;28;20659;-70
2022/05/11 03:03:54;;;;;;;4.83;3.80;;;;;;;;;;4981188;28;20242;-70
2022/05/11 03:06:20;;;;;;;5.77;4.03;;;;;;;;;;4981548;28;20623;-70
2022/05/11 03:08:46;;;;;;;5.17;4.33;;;;;;;;;;4984921;28;20222;-70
2022/05/11 03:11:12;;;;;;;6.07;4.37;;;;;;;;;;4979105;28;20190;-70
2022/05/11 03:13:38;;;;;;;5.63;4.10;;;;;;;;;;4984208;28;21822;-70
2022/05/11 03:16:04;;;;;;;4.83;4.20;;;;;;;;;;4972903;28;20194;-70
2022/05/11 03:18:30;;;;;;;5.60;4.10;;;;;;;;;;4965282;28;20190;-69
2022/05/11 03:20:57;;;;;;;5.47;4.00;;;;;;;;;;4991943;28;20262;-69
2022/05/11 03:23:23;;;;;;;6.73;4.43;;;;;;;;;;4984914;28;20196;-69
2022/05/11 03:25:49;;;;;;;6.67;4.70;;;;;;;;;;4982473;28;20190;-69
2022/05/11 03:28:14;;;;;;;7.73;4.40;;;;;;;;;;4990415;28;20245;-70
2022/05/11 03:30:40;;;;;;;6.80;3.87;;;;;;;;;;4982653;28;20353;-70
2022/05/11 03:35:51;;;;;;;6.10;3.90;;;;;;;;;;4986619;28;20302;-70
2022/05/11 03:38:17;;;;;;;7.57;3.97;;;;;;;;;;4984205;28;20210;-69
2022/05/11 03:40:43;;;;;;;5.97;3.70;;;;;;;;;;4964037;28;20217;-70
2022/05/11 03:43:09;;;;;;;4.60;3.80;;;;;;;;;;4985003;28;20316;-70
2022/05/11 03:45:35;;;;;;;5.53;4.33;;;;;;;;;;4982527;28;20340;-70
2022/05/11 03:48:01;;;;;;;5.53;3.97;;;;;;;;;;4984261;28;20798;-70
2022/05/11 03:50:27;;;;;;;8.27;4.83;;;;;;;;;;4987780;28;20198;-71
2022/05/11 03:52:53;;;;;;;5.67;4.40;;;;;;;;;;4992567;28;22050;-70
2022/05/11 03:55:19;;;;;;;6.23;3.67;;;;;;;;;;4981443;28;20189;-70
2022/05/11 03:57:45;;;;;;;5.67;3.90;;;;;;;;;;4982360;28;20201;-71
2022/05/11 04:00:12;;;;;;;7.00;3.70;;;;;;;;;;4988955;28;20186;-71
2022/05/11 04:02:38;;;;;;;8.20;3.90;;;;;;;;;;4979102;28;20584;-70
2022/05/11 04:05:05;;;;;;;5.20;4.10;;;;;;;;;;4977696;28;20730;-70
2022/05/11 04:07:32;;;;;;;4.37;3.80;;;;;;;;;;4986160;28;20213;-69
2022/05/11 04:09:58;;;;;;;6.57;4.23;;;;;;;;;;4983705;28;20182;-69
2022/05/11 04:12:26;;;;;;;5.07;4.00;;;;;;;;;;4981762;28;20699;-69
2022/05/11 04:14:52;;;;;;;5.37;4.13;;;;;;;;;;4984225;28;20212;-69
2022/05/11 04:17:18;;;;;;;5.37;3.97;;;;;;;;;;4969992;28;20871;-70
2022/05/11 04:19:44;;;;;;;6.47;3.67;;;;;;;;;;4982164;28;20311;-70
2022/05/11 04:22:10;;;;;;;5.23;4.00;;;;;;;;;;4987001;28;20222;-69
2022/05/11 04:24:36;;;;;;;6.57;4.33;;;;;;;;;;4988765;28;20219;-70
2022/05/11 04:27:02;;;;;;;8.03;4.47;;;;;;;;;;4988505;28;20206;-70
2022/05/11 04:29:28;;;;;;;7.77;4.80;;;;;;;;;;4985814;28;20248;-70
2022/05/11 04:31:54;;;;;;;5.07;4.10;;;;;;;;;;4978752;28;20693;-71
2022/05/11 04:34:20;;;;;;;6.13;4.50;;;;;;;;;;4983545;28;20189;-70
2022/05/11 04:36:46;;;;;;;5.83;4.87;;;;;;;;;;4989597;28;20639;-71
2022/05/11 04:39:12;;;;;;;6.07;4.70;;;;;;;;;;4986772;28;21417;-70
2022/05/11 04:41:38;;;;;;;6.53;4.80;;;;;;;;;;4984544;28;20274;-71
2022/05/11 04:44:04;;;;;;;7.47;5.13;;;;;;;;;;4969912;28;20213;-70
2022/05/11 04:46:33;;;;;;;10.00;5.70;;;;;;;;;;4981766;28;20308;-70
2022/05/11 04:51:45;;;;;;;8.73;6.20;;;;;;;;;;4981728;28;20220;-70
2022/05/11 04:54:11;;;;;;;9.23;6.30;;;;;;;;;;4969551;28;20228;-69
2022/05/11 04:56:38;;;;;;;9.67;6.87;;;;;;;;;;4987802;28;20185;-71
2022/05/11 04:59:05;;;;;;;12.23;7.27;;;;;;;;;;4993010;28;20217;-70
2022/05/11 05:01:32;;;;;;;10.90;7.37;;;;;;;;;;4976713;28;20241;-70
2022/05/11 05:03:58;;;;;;;11.10;7.47;;;;;;;;;;4981080;28;20303;-70
2022/05/11 05:06:24;;;;;;;11.47;7.70;;;;;;;;;;4982381;28;21236;-70
2022/05/11 05:08:53;;;;;;;10.53;6.83;;;;;;;;;;4989270;28;20225;-70
2022/05/11 05:11:19;;;;;;;10.03;6.83;;;;;;;;;;4967233;28;20190;-70
2022/05/11 05:13:46;;;;;;;9.73;7.23;;;;;;;;;;4977007;28;21340;-70
2022/05/11 05:16:12;;;;;;;9.07;7.50;;;;;;;;;;4975238;28;20182;-70
2022/05/11 05:18:38;;;;;;;11.10;8.37;;;;;;;;;;4973984;28;20193;-69
2022/05/11 05:21:04;;;;;;;13.30;7.83;;;;;;;;;;4991016;28;20224;-70
2022/05/11 05:23:29;;;;;;;8.93;8.03;;;;;;;;;;4983231;28;20280;-70
2022/05/11 05:25:55;;;;;;;12.97;8.50;;;;;;;;;;4997163;28;20194;-69
2022/05/11 05:31:08;;;;;;;11.70;8.77;;;;;;;;;;4974388;28;20319;-71
2022/05/11 05:33:34;;;;;;;7.60;6.67;;;;;;;;;;4978565;28;20178;-71
2022/05/11 05:36:00;;;;;;;8.83;6.53;;;;;;;;;;4984159;28;20193;-71
2022/05/11 05:38:27;;;;;;;9.60;6.33;;;;;;;;;;4996157;28;20191;-70
2022/05/11 05:40:54;;;;;;;12.77;6.50;;;;;;;;;;4995497;28;20202;-70
2022/05/11 05:43:20;;;;;;;7.43;5.27;;;;;;;;;;4994920;28;20299;-70
2022/05/11 05:45:49;;;;;;;8.03;5.87;;;;;;;;;;5004349;28;20714;-70
2022/05/11 05:48:15;;;;;;;9.20;5.50;;;;;;;;;;4999629;28;20245;-70
2022/05/11 05:50:41;;;;;;;9.97;6.17;;;;;;;;;;5000007;28;20213;-71
2022/05/11 05:53:07;;;;;;;11.83;5.13;;;;;;;;;;4999137;28;20635;-71
2022/05/11 05:55:33;;;;;;;7.70;5.53;;;;;;;;;;4998384;28;20259;-70
2022/05/11 05:57:59;;;;;;;8.43;5.40;;;;;;;;;;4993402;28;20194;-70
2022/05/11 06:00:26;;;;;;;8.13;5.07;;;;;;;;;;4998038;28;20604;-70
2022/05/11 06:02:52;;;;;;;6.10;5.10;;;;;;;;;;4997372;28;21672;-71
2022/05/11 06:05:17;;;;;;;8.07;5.17;;;;;;;;;;4998302;28;20654;-70
2022/05/11 06:07:43;;;;;;;9.00;5.80;;;;;;;;;;4993776;28;20247;-70
2022/05/11 06:10:09;;;;;;;9.03;5.43;;;;;;;;;;4996810;28;20210;-70
2022/05/11 06:12:35;;;;;;;9.60;6.50;;;;;;;;;;4997952;28;20275;-70
2022/05/11 06:15:02;;;;;;;12.27;6.50;;;;;;;;;;4997224;28;20218;-70
2022/05/11 06:17:29;;;;;;;11.03;5.67;;;;;;;;;;4995429;28;20190;-70
2022/05/11 06:19:55;;;;;;;12.50;6.50;;;;;;;;;;4995951;28;20580;-70
2022/05/11 06:22:21;;;;;;;8.77;6.00;;;;;;;;;;4995575;28;20203;-70
2022/05/11 06:24:47;;;;;;;13.20;5.97;;;;;;;;;;4992283;28;20754;-70
2022/05/11 06:27:15;;;;;;;9.97;5.50;;;;;;;;;;4995056;28;20201;-70
2022/05/11 06:29:41;;;;;;;11.03;5.23;;;;;;;;;;4993094;28;20190;-70
2022/05/11 06:32:07;;;;;;;10.00;5.77;;;;;;;;;;4996637;28;20248;-70
2022/05/11 06:34:33;;;;;;;12.70;5.40;;;;;;;;;;4990384;28;20537;-70
2022/05/11 06:36:59;;;;;;;11.67;5.03;;;;;;;;;;4987614;28;20248;-70
2022/05/11 06:39:25;;;;;;;6.17;5.27;;;;;;;;;;4987502;28;20186;-70
2022/05/11 06:41:50;;;;;;;11.10;4.90;;;;;;;;;;4995825;28;20189;-70
2022/05/11 06:44:16;;;;;;;9.50;5.60;;;;;;;;;;4994964;28;20300;-70
2022/05/11 06:46:44;;;;;;;9.83;4.93;;;;;;;;;;4996012;28;20189;-70
2022/05/11 06:49:10;;;;;;;9.90;4.80;;;;;;;;;;4996932;28;20651;-70
2022/05/11 06:51:36;;;;;;;7.10;4.40;;;;;;;;;;4995607;28;20244;-70
2022/05/11 06:59:33;;;;;;;6.70;4.30;;;;;;;;;;4997183;28;20261;-70
2022/05/11 07:01:59;;;;;;;11.47;4.50;;;;;;;;;;4998164;28;20233;-70
2022/05/11 07:04:25;;;;;;;7.90;4.20;;;;;;;;;;4990890;28;20325;-70
2022/05/11 07:06:52;;;;;;;5.40;3.77;;;;;;;;;;4994057;28;20182;-71
2022/05/11 07:09:18;;;;;;;12.00;4.17;;;;;;;;;;4993352;28;20190;-70
2022/05/11 07:14:29;;;;;;;8.17;4.17;;;;;;;;;;4990669;28;20892;-70
2022/05/11 07:16:55;;;;;;;6.73;4.33;;;;;;;;;;4999660;28;20202;-70
2022/05/11 07:19:23;;;;;;;9.83;3.67;;;;;;;;;;4997815;28;20284;-70
2022/05/11 07:21:49;;;;;;;7.10;3.50;;;;;;;;;;4991449;28;20181;-70
2022/05/11 07:24:15;;;;;;;6.47;3.67;;;;;;;;;;4994344;28;20186;-71
2022/05/11 07:26:41;;;;;;;8.20;3.67;;;;;;;;;;4974104;28;20186;-70
2022/05/11 07:29:07;;;;;;;6.53;3.33;;;;;;;;;;4997651;28;20206;-70
2022/05/11 07:31:33;;;;;;;6.20;3.40;;;;;;;;;;4992973;28;20263;-70
2022/05/11 07:33:59;;;;;;;7.17;3.40;;;;;;;;;;4994911;28;20675;-70
2022/05/11 07:36:25;;;;;;;6.27;3.33;;;;;;;;;;4994043;28;20269;-70
2022/05/11 07:38:51;;;;;;;3.23;2.83;;;;;;;;;;4994786;28;20280;-70
2022/05/11 07:41:17;;;;;;;5.33;2.87;;;;;;;;;;4995162;28;20205;-70
2022/05/11 07:43:43;;;;;;;4.13;2.27;;;;;;;;;;4992848;28;20259;-70
2022/05/11 07:46:09;;;;;;;3.60;2.20;;;;;;;;;;4996896;28;20194;-70
2022/05/11 07:48:35;;;;;;;9.03;2.43;;;;;;;;;;4998479;28;20694;-70
2022/05/11 07:51:01;;;;;;;5.10;2.23;;;;;;;;;;4993869;28;20289;-70
2022/05/11 07:53:27;;;;;;;3.47;2.20;;;;;;;;;;4994620;28;20193;-70
2022/05/11 08:01:27;;;;;;;3.27;2.20;;;;;;;;;;4975110;28;20200;-70
2022/05/11 08:03:53;;;;;;;5.97;1.83;;;;;;;;;;4976777;28;20244;-70
2022/05/11 08:06:19;;;;;;;4.13;1.90;;;;;;;;;;4984431;28;20190;-70
2022/05/11 08:08:45;;;;;;;4.38;2.10;;;;;;;;;;4990771;28;20217;-70
2022/05/11 08:11:11;;;;;;;5.87;2.10;;;;;;;;;;4988309;28;20187;-71
2022/05/11 08:13:37;;;;;;;2.22;1.90;;;;;;;;;;4991233;28;20186;-70
2022/05/11 08:16:03;;;;;;;3.03;2.00;;;;;;;;;;4995487;28;20198;-70
2022/05/11 08:18:29;;;;;;;2.92;1.90;;;;;;;;;;4992044;28;20192;-70
2022/05/11 08:20:55;;;;;;;2.47;1.70;;;;;;;;;;4996758;28;20943;-71
2022/05/11 08:23:21;;;;;;;2.60;1.60;;;;;;;;;;4993008;28;20197;-71
2022/05/11 08:25:49;;;;;;;3.20;1.70;;;;;;;;;;4989477;28;20230;-70
2022/05/11 08:28:15;;;;;;;2.70;2.17;;;;;;;;;;4994166;28;20222;-70
2022/05/11 08:33:27;;;;;;;6.72;2.50;;;;;;;;;;4994722;28;20204;-70
2022/05/11 08:35:58;;;;;;;4.32;2.08;;;;;;;;;;4993266;28;20170;-70
2022/05/11 08:38:25;;;;;;;4.38;2.22;;;;;;;;;;4990603;28;20237;-70
2022/05/11 08:40:51;;;;;;;4.50;2.67;;;;;;;;;;4994682;28;20913;-70
2022/05/11 08:43:17;;;;;;;3.65;2.17;;;;;;;;;;4991592;28;20232;-70
2022/05/11 08:46:02;;;;;;;3.47;2.50;;;;;;;;;;4996111;28;20276;-70
2022/05/11 08:48:29;;;;;;;3.20;2.28;;;;;;;;;;4995759;28;20310;-70
2022/05/11 08:50:54;;;;;;;3.30;2.40;;;;;;;;;;4995613;28;20197;-70
2022/05/11 08:53:37;;;;;;;3.55;2.28;;;;;;;;;;4989307;28;20189;-71
2022/05/11 08:56:14;;;;;;;4.40;2.38;;;;;;;;;;4983672;28;20182;-71
2022/05/11 08:58:48;;;;;;;3.67;2.30;;;;;;;;;;4994860;28;20193;-71
2022/05/11 09:01:30;;;;;;;4.60;2.50;;;;;;;;;;4984792;28;20766;-71
2022/05/11 09:03:57;;;;;;;4.60;2.72;;;;;;;;;;4990173;28;20244;-70
2022/05/11 09:06:24;;;;;;;5.65;3.10;;;;;;;;;;4990922;28;20189;-72
2022/05/11 09:08:50;;;;;;;7.28;3.30;;;;;;;;;;4988445;28;20210;-72
2022/05/11 09:11:23;;;;;;;7.35;3.15;;;;;;;;;;4998759;28;20194;-72
2022/05/11 09:13:49;;;;;;;7.10;3.28;;;;;;;;;;4993977;28;20174;-72
2022/05/11 09:16:19;;;;;;;4.43;3.25;;;;;;;;;;4991999;28;20691;-72
2022/05/11 09:18:45;;;;;;;3.67;3.33;;;;;;;;;;4990823;28;20744;-72
2022/05/11 09:21:29;;;;;;;5.45;3.55;;;;;;;;;;4995820;28;20193;-72
2022/05/11 09:24:15;;;;;;;8.32;3.55;;;;;;;;;;4990856;28;20185;-72
2022/05/11 09:26:44;;;;;;;4.18;3.67;;;;;;;;;;4998122;28;20733;-72
2022/05/11 09:29:13;;;;;;;6.25;3.92;;;;;;;;;;4991993;28;20742;-71
2022/05/11 09:31:39;;;;;;;6.03;3.42;;;;;;;;;;4990295;28;20178;-72
2022/05/11 09:34:05;;;;;;;4.63;3.17;;;;;;;;;;4995713;28;20194;-72
2022/05/11 09:36:35;;;;;;;7.03;3.30;;;;;;;;;;5001303;28;20182;-72
2022/05/11 09:39:13;;;;;;;6.32;3.70;;;;;;;;;;4994896;28;20193;-71
2022/05/11 09:41:40;;;;;;;7.15;3.60;;;;;;;;;;4991083;28;20178;-72
2022/05/11 09:44:17;;;;;;;4.97;3.92;;;;;;;;;;4995755;28;20245;-72
2022/05/11 09:46:43;;;;;;;7.55;3.97;;;;;;;;;;4992894;28;20748;-72
2022/05/11 09:49:24;;;;;;;9.07;3.65;;;;;;;;;;4993675;28;20220;-72
2022/05/11 09:51:54;;;;;;;5.85;4.20;;;;;;;;;;5004353;28;20627;-71
2022/05/11 09:54:28;;;;;;;10.57;3.65;;;;;;;;;;4995433;28;20566;-71
2022/05/11 09:57:20;;;;;;;8.13;4.00;;;;;;;;;;4989409;28;20205;-71
2022/05/11 09:59:49;;;;;;;7.82;4.57;;;;;;;;;;4994353;28;20185;-71
2022/05/11 10:02:35;;;;;;;8.52;3.97;;;;;;;;;;4983132;28;20169;-71
2022/05/11 10:05:02;;;;;;;8.75;4.63;;;;;;;;;;4988731;28;20242;-71
2022/05/11 10:07:28;;;;;;;7.10;4.57;;;;;;;;;;4990692;28;20202;-71
2022/05/11 10:10:02;;;;;;;9.27;4.85;;;;;;;;;;4991817;28;20213;-71
2022/05/11 10:12:29;;;;;;;6.95;3.30;;;;;;;;;;4993061;28;20434;-70
2022/05/11 10:23:16;;;;;;;3.72;2.78;;;;;;;;;;4992993;28;20191;-70
2022/05/11 10:25:42;;;;;;;6.68;3.13;;;;;;;;;;4997037;28;20682;-69
2022/05/11 10:28:11;;;;;;;6.90;2.33;;;;;;;;;;4992515;28;20742;-69
2022/05/11 10:30:37;;;;;;;4.22;2.30;;;;;;;;;;4993743;28;20187;-70
2022/05/11 10:33:04;;;;;;;4.10;2.70;;;;;;;;;;4996794;28;20248;-69
2022/05/11 10:35:37;;;;;;;3.75;2.28;;;;;;;;;;4996138;28;20558;-69
2022/05/11 10:38:13;;;;;;;3.22;2.53;;;;;;;;;;4994701;28;20224;-69
2022/05/11 10:40:59;;;;;;;5.13;2.72;;;;;;;;;;4997885;28;20261;-69
2022/05/11 10:43:31;;;;;;;4.57;2.63;;;;;;;;;;4997026;28;20201;-70
2022/05/11 10:46:13;;;;;;;3.28;2.40;;;;;;;;;;4992373;28;20244;-69
2022/05/11 10:48:41;;;;;;;2.55;2.33;;;;;;;;;;4996008;28;20216;-70
2022/05/11 10:51:11;;;;;;;5.50;2.30;;;;;;;;;;4996518;28;20232;-70
2022/05/11 10:53:42;;;;;;;3.28;2.33;;;;;;;;;;4995217;28;20213;-69
2022/05/11 10:56:18;;;;;;;7.20;2.70;;;;;;;;;;4995941;28;20178;-70
2022/05/11 10:59:03;;;;;;;4.07;2.47;;;;;;;;;;4990828;28;20197;-69
2022/05/11 11:01:31;;;;;;;5.18;2.17;;;;;;;;;;4996132;28;20281;-70
2022/05/11 11:04:07;;;;;;;3.17;2.17;;;;;;;;;;4992682;28;20340;-70
2022/05/11 11:09:29;;;;;;;5.57;2.33;;;;;;;;;;4991036;28;20252;-70
2022/05/11 11:12:14;;;;;;;5.13;2.60;;;;;;;;;;4984945;28;20711;-70
2022/05/11 11:14:41;;;;;;;4.57;2.80;;;;;;;;;;4982821;28;20244;-71
2022/05/11 11:17:08;;;;;;;8.30;2.97;;;;;;;;;;4988029;28;20214;-70
2022/05/11 11:19:34;;;;;;;6.32;2.78;;;;;;;;;;4990234;28;20240;-70
2022/05/11 11:22:01;;;;;;;5.22;3.05;;;;;;;;;;4991227;28;20220;-70
2022/05/11 11:24:28;;;;;;;8.77;3.22;;;;;;;;;;4991966;28;20706;-69
2022/05/11 11:27:04;;;;;;;5.03;2.75;;;;;;;;;;4989380;28;20198;-70
2022/05/11 11:29:31;;;;;;;3.53;2.97;;;;;;;;;;4996227;28;20272;-70
2022/05/11 11:32:00;;;;;;;5.78;3.10;;;;;;;;;;4991029;28;20195;-71
2022/05/11 11:34:35;;;;;;;9.32;2.97;;;;;;;;;;4995559;28;20198;-71
2022/05/11 11:37:21;;;;;;;4.35;3.25;;;;;;;;;;4990892;28;20553;-70
2022/05/11 11:39:49;;;;;;;5.72;2.80;;;;;;;;;;4989757;28;20659;-69
2022/05/11 11:42:34;;;;;;;2.80;2.50;;;;;;;;;;4987784;28;20186;-70
2022/05/11 11:45:00;;;;;;;5.13;2.78;;;;;;;;;;4992900;28;20323;-70
2022/05/11 11:47:26;;;;;;;5.32;3.03;;;;;;;;;;4993415;28;20218;-70
2022/05/11 11:49:56;;;;;;;3.58;3.05;;;;;;;;;;4995177;28;20623;-70
2022/05/11 11:52:37;;;;;;;6.05;3.35;;;;;;;;;;4983334;28;20827;-70
2022/05/11 11:55:03;;;;;;;4.78;2.90;;;;;;;;;;4968958;28;20717;-69
2022/05/11 11:57:30;;;;;;;4.70;2.85;;;;;;;;;;4992569;28;20178;-69
2022/05/11 11:59:57;;;;;;;7.13;3.10;;;;;;;;;;4993608;28;20260;-70
2022/05/11 12:02:23;;;;;;;6.03;2.65;;;;;;;;;;4990799;28;20563;-69
2022/05/11 12:04:58;;;;;;;5.22;3.13;;;;;;;;;;4989567;28;20249;-69
2022/05/11 12:15:41;;;;;;;5.25;3.10;;;;;;;;;;4988347;28;20240;-69
2022/05/11 12:18:28;;;;;;;4.32;3.03;;;;;;;;;;4986822;28;20182;-72
2022/05/11 12:20:55;;;;;;;5.00;3.13;;;;;;;;;;4990178;28;20189;-72
2022/05/11 12:23:22;;;;;;;3.90;2.95;;;;;;;;;;4991273;28;20197;-72
2022/05/11 12:25:52;;;;;;;6.65;3.38;;;;;;;;;;5003698;28;20190;-72
2022/05/11 12:28:20;;;;;;;6.65;3.30;;;;;;;;;;4993571;28;20732;-71
2022/05/11 12:30:47;;;;;;;4.10;3.10;;;;;;;;;;4994139;28;20674;-71
2022/05/11 12:33:23;;;;;;;6.47;3.08;;;;;;;;;;4993006;28;20186;-71
2022/05/11 12:35:49;;;;;;;6.50;3.05;;;;;;;;;;4995089;28;20182;-71
2022/05/11 12:38:25;;;;;;;7.63;3.45;;;;;;;;;;4990457;28;20574;-70
2022/05/11 12:40:51;;;;;;;5.03;2.88;;;;;;;;;;4991648;28;20189;-71
2022/05/11 12:43:23;;;;;;;4.30;3.15;;;;;;;;;;5012707;28;20195;-72
2022/05/11 12:45:49;;;;;;;5.05;3.20;;;;;;;;;;5017243;28;20186;-71
2022/05/11 12:48:19;;;;;;;4.80;3.13;;;;;;;;;;5011383;28;20234;-70
2022/05/11 12:50:49;;;;;;;4.72;3.10;;;;;;;;;;4987811;28;21136;-71
2022/05/11 12:53:18;;;;;;;8.50;3.38;;;;;;;;;;4990651;28;20805;-71
2022/05/11 12:55:48;;;;;;;9.10;3.30;;;;;;;;;;4989049;28;20595;-71
2022/05/11 12:58:18;;;;;;;6.95;3.00;;;;;;;;;;4990001;28;20624;-72
2022/05/11 13:00:44;;;;;;;7.80;3.05;;;;;;;;;;4991272;28;20209;-71
2022/05/11 13:03:25;;;;;;;7.15;3.60;;;;;;;;;;4975848;28;20298;-70
2022/05/11 13:05:53;;;;;;;5.07;3.13;;;;;;;;;;4985098;28;21134;-70
2022/05/11 13:08:19;;;;;;;8.35;2.97;;;;;;;;;;4991371;28;20226;-71
2022/05/11 13:10:45;;;;;;;4.45;2.78;;;;;;;;;;4988738;28;20434;-72
2022/05/11 13:13:12;;;;;;;6.45;2.80;;;;;;;;;;4983515;28;20213;-71
2022/05/11 13:15:39;;;;;;;7.40;3.50;;;;;;;;;;4982430;28;20186;-71
2022/05/11 13:18:06;;;;;;;5.45;3.42;;;;;;;;;;4988414;28;20224;-72
2022/05/11 13:20:34;;;;;;;6.78;3.28;;;;;;;;;;4985735;28;20240;-71
2022/05/11 13:23:00;;;;;;;6.70;3.15;;;;;;;;;;4980133;28;20190;-71
2022/05/11 13:25:38;;;;;;;6.22;3.13;;;;;;;;;;4986125;28;20274;-72
2022/05/11 13:28:11;;;;;;;6.20;3.40;;;;;;;;;;4989298;28;20232;-72
2022/05/11 13:30:42;;;;;;;11.88;3.50;;;;;;;;;;4989352;28;20186;-72
2022/05/11 13:33:26;;;;;;;4.05;2.90;;;;;;;;;;4985997;28;20213;-72
2022/05/11 13:36:11;;;;;;;9.18;3.75;;;;;;;;;;4991570;28;20190;-72
2022/05/11 13:38:38;;;;;;;5.85;3.33;;;;;;;;;;4989128;28;20193;-72
2022/05/11 13:41:04;;;;;;;6.55;3.65;;;;;;;;;;4978245;28;20268;-71
2022/05/11 13:43:31;;;;;;;6.50;3.28;;;;;;;;;;4981610;28;20185;-71
2022/05/11 13:46:10;;;;;;;6.65;3.70;;;;;;;;;;4984930;28;20193;-71
2022/05/11 13:48:44;;;;;;;6.43;3.42;;;;;;;;;;4990488;28;20236;-71
2022/05/11 13:51:15;;;;;;;4.35;2.88;;;;;;;;;;4981472;28;20196;-71
2022/05/11 13:53:41;;;;;;;6.38;3.58;;;;;;;;;;4986235;28;20256;-71
2022/05/11 13:56:28;;;;;;;7.53;3.40;;;;;;;;;;4986249;28;20193;-71
2022/05/11 13:58:57;;;;;;;5.50;3.00;;;;;;;;;;4989700;28;20197;-71
2022/05/11 14:01:24;;;;;;;6.00;3.05;;;;;;;;;;4985750;28;20261;-71
2022/05/11 14:03:58;;;;;;;5.82;2.67;;;;;;;;;;4989535;28;20635;-71
2022/05/11 14:06:31;;;;;;;6.32;2.50;;;;;;;;;;5000092;28;20191;-71
2022/05/11 14:08:57;;;;;;;7.97;2.65;;;;;;;;;;4982312;28;20252;-72
2022/05/11 14:11:23;;;;;;;9.80;2.67;;;;;;;;;;4991877;28;20301;-73
2022/05/11 14:13:49;;;;;;;3.90;2.67;;;;;;;;;;4986089;28;20891;-72
2022/05/11 14:16:18;;;;;;;15.60;3.03;;;;;;;;;;4975173;28;20194;-72
2022/05/11 14:18:48;;;;;;;8.88;2.22;;;;;;;;;;4964782;28;20197;-72
2022/05/11 14:21:14;;;;;;;9.68;2.40;;;;;;;;;;4977218;28;20306;-72
2022/05/11 14:23:40;;;;;;;7.35;2.50;;;;;;;;;;4992090;28;20197;-72
2022/05/11 14:26:05;;;;;;;7.53;2.50;;;;;;;;;;4994368;28;20193;-71
2022/05/11 14:28:32;;;;;;;4.82;2.13;;;;;;;;;;4987610;28;20261;-71
2022/05/11 14:30:58;;;;;;;3.58;2.17;;;;;;;;;;4993887;28;20218;-71
2022/05/11 14:33:24;;;;;;;5.90;2.30;;;;;;;;;;4994449;28;20722;-72
2022/05/11 14:35:50;;;;;;;4.45;2.45;;;;;;;;;;4993016;28;20194;-72
2022/05/11 14:38:16;;;;;;;3.72;2.42;;;;;;;;;;4989321;28;21121;-71
2022/05/11 14:40:42;;;;;;;10.40;2.42;;;;;;;;;;4991175;28;20573;-71
2022/05/11 14:43:08;;;;;;;8.82;2.22;;;;;;;;;;4989639;28;20188;-71
2022/05/11 14:45:35;;;;;;;9.48;2.50;;;;;;;;;;4985281;28;20190;-71
2022/05/11 14:48:01;;;;;;;7.40;2.47;;;;;;;;;;4991703;28;20284;-71
2022/05/11 14:50:27;;;;;;;6.43;2.58;;;;;;;;;;4985599;28;20253;-72
2022/05/11 14:52:55;;;;;;;13.85;2.88;;;;;;;;;;4993783;28;20727;-70
2022/05/11 14:55:21;;;;;;;8.35;2.70;;;;;;;;;;4989778;28;20429;-69
2022/05/11 15:03:17;;;;;;;7.88;2.03;;;;;;;;;;4999483;28;20713;-69
2022/05/11 15:05:43;;;;;;;5.68;1.75;;;;;;;;;;4990056;28;20663;-69
2022/05/11 15:08:09;;;;;;;8.52;2.10;;;;;;;;;;4995263;28;20218;-69
2022/05/11 15:10:35;;;;;;;6.03;2.20;;;;;;;;;;4996629;28;20256;-69
2022/05/11 15:15:46;;;;;;;13.68;2.33;;;;;;;;;;4992620;28;20259;-68
2022/05/11 15:18:12;;;;;;;7.00;2.30;;;;;;;;;;4994761;28;20192;-69
2022/05/11 15:20:38;;;;;;;5.07;1.92;;;;;;;;;;4992181;28;20186;-69
2022/05/11 15:23:05;;;;;;;9.43;2.22;;;;;;;;;;4994406;28;20193;-68
2022/05/11 15:25:30;;;;;;;9.38;1.77;;;;;;;;;;4996130;28;20190;-68
2022/05/11 15:27:56;;;;;;;7.15;2.10;;;;;;;;;;4993136;28;20208;-69
2022/05/11 15:30:22;;;;;;;5.88;1.88;;;;;;;;;;4975097;28;20186;-68
2022/05/11 15:32:49;;;;;;;5.47;2.20;;;;;;;;;;4991417;28;20216;-68
2022/05/11 15:35:16;;;;;;;3.55;1.80;;;;;;;;;;4983281;28;20281;-68
2022/05/11 15:37:42;;;;;;;7.65;2.25;;;;;;;;;;4992653;28;20868;-68
2022/05/11 15:40:08;;;;;;;5.72;2.10;;;;;;;;;;4996134;28;20217;-69
2022/05/11 15:42:34;;;;;;;6.72;2.35;;;;;;;;;;4991497;28;20217;-69
2022/05/11 15:45:00;;;;;;;5.53;1.90;;;;;;;;;;4992651;28;20197;-69
2022/05/11 15:47:27;;;;;;;4.85;1.98;;;;;;;;;;4993806;28;20240;-69